Time;durP1;ratioP1;P1;durP2;ratioP2;P2;SDS_P1;SDS_P2;PMS_P1;PMS_P2;Temp;Humidity;BMP_temperature;BMP_pressure;BME280_temperature;BME280_humidity;BME280_pressure;Samples;Min_cycle;Max_cycle;Signal;HPM_P1;HPM_P2
2023/07/14 00:00:42;;;;;;;16.42;11.60;;;;;;;22.83;73.32;92873.44;5071223;28;20216;-77
2023/07/14 00:03:14;;;;;;;11.85;10.73;;;;;;;22.88;73.47;92859.84;5061606;28;20195;-76
2023/07/14 00:05:40;;;;;;;12.77;11.68;;;;;;;22.57;74.08;92860.66;5072594;28;20231;-75
2023/07/14 00:08:14;;;;;;;11.77;10.85;;;;;;;22.38;74.49;92852.63;5073795;28;20181;-76
2023/07/14 00:10:40;;;;;;;12.45;11.43;;;;;;;22.52;73.65;92839.66;5072735;28;20256;-76
2023/07/14 00:13:09;;;;;;;12.63;11.32;;;;;;;22.65;74.11;92851.72;5073734;28;20191;-77
2023/07/14 00:15:37;;;;;;;11.85;10.73;;;;;;;22.55;74.27;92852.28;5072809;28;20220;-76
2023/07/14 00:18:29;;;;;;;12.05;10.95;;;;;;;22.68;74.48;92848.38;5073976;28;20196;-77
2023/07/14 00:20:56;;;;;;;12.85;11.63;;;;;;;22.49;73.33;92855.53;5057739;28;20238;-76
2023/07/14 00:23:21;;;;;;;13.07;11.68;;;;;;;22.72;72.47;92853.78;5072415;28;20226;-77
2023/07/14 00:25:46;;;;;;;12.07;10.93;;;;;;;22.67;73.47;92844.19;5073111;28;20235;-76
2023/07/14 00:28:21;;;;;;;14.20;12.20;;;;;;;22.59;74.60;92849.69;5073317;28;20196;-76
2023/07/14 00:30:47;;;;;;;12.85;10.88;;;;;;;22.65;74.42;92851.72;5065610;28;20231;-76
2023/07/14 00:33:15;;;;;;;14.40;11.60;;;;;;;22.72;74.77;92843.13;5072645;28;20219;-77
2023/07/14 00:35:41;;;;;;;11.85;10.68;;;;;;;22.65;74.20;92838.44;5065365;28;20237;-77
2023/07/14 00:38:08;;;;;;;13.68;12.15;;;;;;;22.37;75.45;92827.09;5068726;28;20199;-76
2023/07/14 00:40:45;;;;;;;11.13;10.13;;;;;;;22.47;75.41;92833.78;5072750;28;20220;-77
2023/07/14 00:43:18;;;;;;;13.88;11.07;;;;;;;22.47;75.43;92829.25;5072509;28;20233;-77
2023/07/14 00:45:47;;;;;;;14.05;10.68;;;;;;;22.53;75.89;92833.22;5072776;28;20666;-77
2023/07/14 00:48:15;;;;;;;12.25;11.15;;;;;;;22.45;75.86;92831.47;5072146;28;20202;-77
2023/07/14 00:50:46;;;;;;;11.63;10.70;;;;;;;22.39;74.72;92848.84;5072680;28;20234;-77
2023/07/14 00:53:43;;;;;;;12.60;11.20;;;;;;;22.47;73.55;92881.69;5072165;28;20287;-78
2023/07/14 00:56:12;;;;;;;12.73;11.63;;;;;;;22.61;72.46;92903.34;5040010;28;20237;-77
2023/07/14 00:58:47;;;;;;;12.15;11.05;;;;;;;22.63;73.33;92912.53;5052844;28;20667;-76
2023/07/14 01:01:25;;;;;;;12.80;11.30;;;;;;;22.72;72.97;92907.81;5068296;28;20223;-76
2023/07/14 01:03:59;;;;;;;12.90;11.18;;;;;;;22.78;73.47;92903.75;5072016;28;20240;-77
2023/07/14 01:06:32;;;;;;;13.18;12.00;;;;;;;22.75;74.41;92909.78;5072227;28;20884;-77
2023/07/14 01:09:08;;;;;;;12.88;11.65;;;;;;;22.72;73.96;92902.50;5072475;28;20198;-76
2023/07/14 01:11:49;;;;;;;13.27;11.68;;;;;;;22.84;74.43;92899.72;5071204;28;20223;-75
2023/07/14 01:14:31;;;;;;;12.13;10.95;;;;;;;22.53;75.80;92897.09;5075461;28;20242;-75
2023/07/14 01:16:59;;;;;;;12.57;11.48;;;;;;;22.62;75.28;92903.00;5072671;28;20203;-76
2023/07/14 01:19:45;;;;;;;14.93;13.38;;;;;;;22.52;76.45;92908.88;5070518;28;20189;-76
2023/07/14 01:22:36;;;;;;;15.50;13.10;;;;;;;22.45;76.81;92894.56;5071704;28;20189;-76
2023/07/14 01:25:27;;;;;;;14.60;13.10;;;;;;;22.48;77.49;92905.31;5071735;28;20227;-76
2023/07/14 01:27:52;;;;;;;14.35;12.15;;;;;;;22.64;77.15;92913.31;5071968;28;20211;-76
2023/07/14 01:30:19;;;;;;;13.82;12.63;;;;;;;22.62;78.05;92911.00;5071576;28;20228;-76
2023/07/14 01:32:47;;;;;;;13.68;12.32;;;;;;;22.59;78.13;92906.34;5072108;28;20189;-77
2023/07/14 01:35:14;;;;;;;14.13;12.85;;;;;;;22.44;78.59;92904.44;5069815;28;20225;-76
2023/07/14 01:37:40;;;;;;;14.50;12.98;;;;;;;22.34;79.74;92902.28;5072192;28;20192;-76
2023/07/14 01:40:11;;;;;;;17.50;13.05;;;;;;;22.38;79.30;92895.19;5071243;28;20282;-77
2023/07/14 01:42:38;;;;;;;14.43;12.90;;;;;;;22.37;79.66;92895.53;5071927;28;20188;-76
2023/07/14 01:45:09;;;;;;;14.65;13.18;;;;;;;22.18;79.90;92866.94;5071084;28;20691;-76
2023/07/14 01:47:36;;;;;;;14.48;13.07;;;;;;;22.33;79.63;92898.09;5072019;28;20186;-77
2023/07/14 01:50:03;;;;;;;15.82;14.23;;;;;;;21.83;81.80;92858.09;5070301;28;20252;-76
2023/07/14 01:52:31;;;;;;;14.20;12.60;;;;;;;21.98;81.44;92876.72;5071714;28;20298;-76
2023/07/14 01:55:01;;;;;;;13.40;12.05;;;;;;;22.00;81.78;92863.06;5070888;28;20228;-76
2023/07/14 01:57:29;;;;;;;15.50;13.90;;;;;;;22.06;81.28;92872.34;5071817;28;20181;-77
2023/07/14 02:00:00;;;;;;;13.43;12.23;;;;;;;22.07;80.54;92860.59;5071192;28;20235;-77
2023/07/14 02:02:32;;;;;;;14.88;13.50;;;;;;;21.96;82.16;92868.28;5074470;28;20192;-76
2023/07/14 02:05:02;;;;;;;13.82;12.52;;;;;;;21.87;82.62;92870.34;5070982;28;20227;-77
2023/07/14 02:07:27;;;;;;;15.93;13.45;;;;;;;22.04;80.33;92874.56;5071258;28;20244;-77
2023/07/14 02:09:53;;;;;;;15.18;13.68;;;;;;;22.14;79.21;92874.06;5071124;28;20225;-76
2023/07/14 02:12:26;;;;;;;14.65;13.25;;;;;;;22.27;79.80;92901.34;5073105;28;20181;-76
2023/07/14 02:15:00;;;;;;;14.43;13.18;;;;;;;22.09;80.82;92895.59;5077079;28;20303;-77
2023/07/14 02:17:32;;;;;;;14.23;13.00;;;;;;;22.12;80.08;92929.47;5071444;28;20223;-77
2023/07/14 02:20:00;;;;;;;15.60;13.77;;;;;;;22.03;80.63;92942.94;5070972;28;20255;-76
2023/07/14 02:22:27;;;;;;;15.35;13.95;;;;;;;22.12;79.12;92962.19;5070648;28;20200;-76
2023/07/14 02:24:54;;;;;;;15.38;13.63;;;;;;;22.17;79.28;92971.78;5069860;28;20219;-77
2023/07/14 02:27:20;;;;;;;18.15;14.90;;;;;;;22.16;79.09;92968.34;5069976;28;20186;-76
2023/07/14 02:29:45;;;;;;;14.57;13.05;;;;;;;22.17;79.92;92987.75;5070725;28;20228;-76
2023/07/14 02:32:24;;;;;;;15.73;14.30;;;;;;;22.21;79.97;92999.28;5070732;28;20187;-77
2023/07/14 02:34:59;;;;;;;16.40;14.48;;;;;;;22.29;80.44;92990.34;5069628;28;20326;-75
2023/07/14 02:37:41;;;;;;;15.07;13.57;;;;;;;22.13;81.29;92986.91;5070804;28;20186;-76
2023/07/14 02:40:08;;;;;;;17.27;13.95;;;;;;;22.15;80.70;92988.09;5070479;28;20669;-77
2023/07/14 02:42:40;;;;;;;17.88;16.35;;;;;;;22.25;80.67;92997.47;5070835;28;20188;-76
2023/07/14 02:45:07;;;;;;;16.20;14.27;;;;;;;22.31;80.52;92996.09;5070253;28;20235;-77
2023/07/14 02:47:36;;;;;;;16.98;14.13;;;;;;;22.17;81.71;92996.50;5071370;28;20263;-77
2023/07/14 02:50:02;;;;;;;16.20;13.38;;;;;;;21.95;81.93;92990.94;5070183;28;20227;-76
2023/07/14 02:52:28;;;;;;;14.02;12.52;;;;;;;21.93;82.29;93006.50;5071009;28;20200;-77
2023/07/14 02:54:53;;;;;;;15.13;13.45;;;;;;;21.88;83.08;93004.81;5070158;28;20212;-74
2023/07/14 02:57:18;;;;;;;13.90;12.65;;;;;;;21.96;82.69;92998.59;5070105;28;20179;-74
2023/07/14 02:59:44;;;;;;;19.50;15.15;;;;;;;21.91;80.47;92993.53;5070261;28;20248;-74
2023/07/14 03:02:09;;;;;;;18.55;12.73;;;;;;;22.17;79.60;92998.38;5070153;28;20213;-73
2023/07/14 03:04:34;;;;;;;15.32;13.73;;;;;;;22.49;74.67;92981.34;5069399;28;20231;-73
2023/07/14 03:07:01;;;;;;;13.05;11.85;;;;;;;22.89;70.49;92979.34;5061971;28;20208;-74
2023/07/14 03:09:26;;;;;;;12.60;11.35;;;;;;;22.97;69.61;92986.38;5069487;28;20181;-74
2023/07/14 03:11:51;;;;;;;12.77;11.48;;;;;;;23.11;70.78;92988.59;5070511;28;20201;-74
2023/07/14 03:14:17;;;;;;;13.05;11.93;;;;;;;23.21;67.00;92980.84;5074685;28;20180;-73
2023/07/14 03:16:42;;;;;;;13.13;11.65;;;;;;;23.70;61.87;92997.16;5052275;28;20176;-74
2023/07/14 03:19:08;;;;;;;16.05;12.50;;;;;;;23.96;62.15;92999.19;5070131;28;20267;-74
2023/07/14 03:21:33;;;;;;;12.23;10.93;;;;;;;23.96;60.79;92978.66;5068958;28;20219;-73
2023/07/14 03:23:58;;;;;;;12.35;11.15;;;;;;;24.16;59.80;92984.75;5069741;28;20242;-74
2023/07/14 03:26:24;;;;;;;12.90;11.68;;;;;;;24.39;58.91;92996.25;5069143;28;20222;-75
2023/07/14 03:28:49;;;;;;;13.52;11.85;;;;;;;24.50;58.35;93010.56;5069808;28;20191;-74
2023/07/14 03:31:15;;;;;;;16.70;11.73;;;;;;;24.66;58.74;93016.59;5069109;28;20215;-71
2023/07/14 03:33:41;;;;;;;13.13;11.55;;;;;;;24.81;58.69;93013.06;5069177;28;20193;-71
2023/07/14 03:36:14;;;;;;;13.80;12.38;;;;;;;24.88;56.10;93026.50;5067763;28;20337;-71
2023/07/14 03:38:42;;;;;;;16.92;11.82;;;;;;;25.27;55.38;93031.38;5069949;28;20323;-71
2023/07/14 03:41:09;;;;;;;17.77;12.55;;;;;;;24.90;59.16;93029.59;5069123;28;20231;-78
2023/07/14 03:43:34;;;;;;;15.00;12.75;;;;;;;24.68;61.79;93044.50;5069344;28;21018;-75
2023/07/14 03:46:01;;;;;;;15.82;12.95;;;;;;;24.57;63.31;93045.41;5069343;28;20236;-76
2023/07/14 03:48:26;;;;;;;14.55;13.00;;;;;;;24.28;65.79;93043.31;5069941;28;20306;-75
2023/07/14 03:50:51;;;;;;;17.33;12.35;;;;;;;24.47;61.80;93032.59;5047940;28;20286;-74
2023/07/14 03:53:17;;;;;;;13.25;11.55;;;;;;;24.92;51.29;93040.69;5049256;28;20240;-75
2023/07/14 03:55:43;;;;;;;17.15;13.35;;;;;;;25.26;45.96;93032.47;5060672;28;20221;-75
2023/07/14 03:58:08;;;;;;;15.68;13.25;;;;;;;25.59;46.85;93042.53;5069058;28;20200;-75
2023/07/14 04:00:33;;;;;;;16.13;13.30;;;;;;;25.69;43.48;93039.25;5067952;28;20258;-75
2023/07/14 04:02:59;;;;;;;16.25;12.38;;;;;;;26.00;41.57;93049.66;5069729;28;20189;-78
2023/07/14 04:05:26;;;;;;;14.85;13.27;;;;;;;26.10;40.54;93032.94;5068313;28;20225;-78
2023/07/14 04:07:51;;;;;;;16.88;12.85;;;;;;;26.32;40.22;93047.38;5069086;28;20213;-78
2023/07/14 04:10:18;;;;;;;17.02;12.93;;;;;;;26.40;40.05;93065.03;5068582;28;20225;-78
2023/07/14 04:12:49;;;;;;;18.02;13.73;;;;;;;26.63;49.24;93087.13;5070875;28;20635;-77
2023/07/14 04:15:14;;;;;;;20.33;12.95;;;;;;;25.70;54.23;93064.88;5069280;28;20247;-77
2023/07/14 04:17:40;;;;;;;14.70;13.15;;;;;;;26.03;54.10;93066.88;5069695;28;20243;-78
2023/07/14 04:20:06;;;;;;;14.65;12.40;;;;;;;26.17;55.51;93083.91;5069346;28;20218;-76
2023/07/14 04:22:31;;;;;;;17.00;13.38;;;;;;;25.71;56.09;93082.47;5068771;28;20257;-76
2023/07/14 04:25:00;;;;;;;16.38;12.70;;;;;;;26.04;56.04;93092.53;5068704;28;20226;-76
2023/07/14 04:27:26;;;;;;;16.95;12.48;;;;;;;26.10;57.69;93112.50;5068939;28;20181;-76
2023/07/14 04:29:51;;;;;;;13.93;12.45;;;;;;;26.08;58.75;93130.81;5068978;28;20221;-75
2023/07/14 04:32:17;;;;;;;17.52;13.68;;;;;;;25.83;60.48;93127.75;5069350;28;20212;-75
2023/07/14 04:34:42;;;;;;;14.27;12.93;;;;;;;25.55;63.20;93142.59;5068719;28;20221;-75
2023/07/14 04:37:09;;;;;;;14.00;12.60;;;;;;;25.64;63.03;93146.56;5052947;28;20178;-71
2023/07/14 04:39:35;;;;;;;17.48;14.65;;;;;;;24.90;64.86;93157.84;5064580;28;20229;-72
2023/07/14 04:42:00;;;;;;;17.42;13.95;;;;;;;24.73;63.66;93155.59;5066912;28;20193;-73
2023/07/14 04:44:26;;;;;;;19.27;14.00;;;;;;;25.27;63.40;93158.91;5066462;28;20228;-72
2023/07/14 04:46:52;;;;;;;20.90;14.07;;;;;;;25.27;62.62;93167.69;5068649;28;20222;-72
2023/07/14 04:49:17;;;;;;;16.23;13.55;;;;;;;25.76;60.99;93173.09;5071879;28;20193;-73
2023/07/14 04:51:43;;;;;;;19.95;13.07;;;;;;;26.15;58.54;93163.78;5071398;28;20253;-70
2023/07/14 04:54:09;;;;;;;17.42;12.98;;;;;;;26.56;57.40;93170.09;5069516;28;20208;-69
2023/07/14 04:56:37;;;;;;;19.73;13.35;;;;;;;26.70;56.87;93175.66;5070923;28;20229;-69
2023/07/14 04:59:04;;;;;;;17.20;12.90;;;;;;;26.90;55.26;93173.59;5072152;28;21076;-69
2023/07/14 05:01:30;;;;;;;15.32;13.05;;;;;;;26.84;56.58;93167.00;5069563;28;20229;-74
2023/07/14 05:03:58;;;;;;;15.45;13.43;;;;;;;26.61;57.16;93151.03;5070639;28;20219;-70
2023/07/14 05:06:23;;;;;;;17.13;13.50;;;;;;;26.82;55.08;93193.41;5070673;28;20319;-70
2023/07/14 05:08:49;;;;;;;18.98;13.18;;;;;;;26.80;55.21;93184.97;5070714;28;20189;-70
2023/07/14 05:11:15;;;;;;;16.05;13.65;;;;;;;26.70;56.35;93184.47;5071003;28;20229;-69
2023/07/14 05:13:40;;;;;;;20.58;12.82;;;;;;;26.77;55.60;93183.78;5074604;28;20205;-71
2023/07/14 05:16:06;;;;;;;21.90;12.82;;;;;;;26.85;55.78;93182.72;5069774;28;20232;-73
2023/07/14 05:18:32;;;;;;;16.02;13.50;;;;;;;26.89;55.25;93175.50;5071546;28;20201;-75
2023/07/14 05:21:00;;;;;;;19.02;13.07;;;;;;;26.63;56.21;93181.69;5070920;28;20229;-74
2023/07/14 05:23:27;;;;;;;15.85;13.63;;;;;;;26.99;56.82;93179.44;5069597;28;20213;-73
2023/07/14 05:25:53;;;;;;;15.40;12.25;;;;;;;26.82;54.66;93180.75;5070919;28;20221;-71
2023/07/14 05:28:18;;;;;;;20.13;13.93;;;;;;;26.86;56.53;93186.97;5069555;28;20190;-70
2023/07/14 05:30:44;;;;;;;17.85;13.23;;;;;;;27.08;54.75;93183.38;5070059;28;20256;-71
2023/07/14 05:33:12;;;;;;;18.00;12.43;;;;;;;27.12;54.82;93191.44;5070969;28;20196;-70
2023/07/14 05:35:38;;;;;;;14.27;12.02;;;;;;;27.62;54.53;93201.56;5070579;28;20225;-71
2023/07/14 05:38:03;;;;;;;15.77;12.52;;;;;;;27.70;54.41;93201.28;5068565;28;20190;-71
2023/07/14 05:40:31;;;;;;;16.65;12.77;;;;;;;27.98;53.30;93201.53;5070629;28;20928;-72
2023/07/14 05:42:57;;;;;;;13.18;11.82;;;;;;;28.99;51.16;93206.00;5043147;28;20282;-71
2023/07/14 05:45:23;;;;;;;14.80;12.88;;;;;;;29.86;48.19;93210.13;5069672;28;20233;-70
2023/07/14 05:47:48;;;;;;;20.02;13.18;;;;;;;29.43;49.51;93214.63;5069057;28;20223;-70
2023/07/14 05:50:15;;;;;;;16.98;12.75;;;;;;;29.38;48.72;93212.31;5070524;28;20227;-70
2023/07/14 05:52:41;;;;;;;19.33;12.25;;;;;;;31.81;42.08;93215.41;5046133;28;20202;-71
2023/07/14 05:55:07;;;;;;;13.32;11.95;;;;;;;33.49;39.08;93217.72;5070176;28;21125;-71
2023/07/14 05:57:35;;;;;;;14.25;11.65;;;;;;;35.58;34.86;93225.47;5062064;28;20305;-71
2023/07/14 06:00:02;;;;;;;12.52;11.32;;;;;;;33.18;37.96;93224.25;5064929;28;20218;-73
2023/07/14 06:02:29;;;;;;;15.23;12.50;;;;;;;33.35;37.72;93221.34;5050620;28;20246;-71
2023/07/14 06:04:54;;;;;;;15.60;11.40;;;;;;;36.02;33.48;93221.44;5069498;28;20225;-75
2023/07/14 06:07:20;;;;;;;19.13;12.02;;;;;;;38.15;29.79;93228.56;5069975;28;20256;-76
2023/07/14 06:09:45;;;;;;;12.13;10.98;;;;;;;37.79;30.88;93222.66;5069227;28;20232;-74
2023/07/14 06:12:11;;;;;;;12.48;10.85;;;;;;;39.30;28.68;93230.63;5069704;28;20193;-75
2023/07/14 06:14:38;;;;;;;15.52;11.13;;;;;;;34.16;34.42;93214.84;5074292;28;20248;-75
2023/07/14 06:17:05;;;;;;;14.20;11.52;;;;;;;36.02;33.32;93218.72;5068383;28;20195;-75
2023/07/14 06:19:31;;;;;;;13.10;11.32;;;;;;;38.20;31.30;93219.84;5070001;28;20182;-75
2023/07/14 06:21:57;;;;;;;11.82;10.63;;;;;;;40.38;27.05;93230.53;5068514;28;20193;-75
2023/07/14 06:24:24;;;;;;;12.88;11.52;;;;;;;39.70;27.23;93231.53;5070109;28;20236;-75
2023/07/14 06:26:50;;;;;;;13.88;11.50;;;;;;;38.54;29.37;93224.63;5070414;28;20245;-74
2023/07/14 06:29:16;;;;;;;13.82;11.10;;;;;;;38.75;29.66;93228.63;5081701;28;20191;-75
2023/07/14 06:31:41;;;;;;;12.05;10.85;;;;;;;39.22;28.34;93223.91;5073379;28;20209;-74
2023/07/14 06:34:07;;;;;;;13.73;10.68;;;;;;;38.68;28.87;93212.47;5069478;28;20189;-75
2023/07/14 06:36:33;;;;;;;12.07;10.75;;;;;;;40.79;25.97;93233.53;5068516;28;20352;-74
2023/07/14 06:38:58;;;;;;;14.05;11.00;;;;;;;39.60;27.81;93227.22;5069409;28;20194;-75
2023/07/14 06:41:24;;;;;;;12.35;10.90;;;;;;;37.55;30.85;93209.69;5068979;28;20213;-75
2023/07/14 06:43:49;;;;;;;12.88;11.40;;;;;;;40.25;27.18;93230.59;5069208;28;20252;-75
2023/07/14 06:46:15;;;;;;;13.32;11.18;;;;;;;38.24;29.87;93215.06;5069165;28;20232;-75
2023/07/14 06:48:40;;;;;;;13.38;11.13;;;;;;;36.35;32.92;93206.66;5070517;28;20189;-74
2023/07/14 06:51:05;;;;;;;11.65;10.45;;;;;;;36.31;33.29;93209.47;5069096;28;20220;-75
2023/07/14 06:53:31;;;;;;;13.75;11.23;;;;;;;33.47;38.41;93206.50;5070281;28;20204;-75
2023/07/14 06:55:56;;;;;;;15.75;12.15;;;;;;;31.86;43.41;93192.63;5069311;28;20225;-75
2023/07/14 06:58:22;;;;;;;13.93;12.07;;;;;;;30.54;47.63;93190.84;5069361;28;20188;-75
2023/07/14 07:00:47;;;;;;;15.27;12.45;;;;;;;29.76;49.53;93193.94;5069181;28;20232;-74
2023/07/14 07:03:12;;;;;;;15.50;12.75;;;;;;;29.52;53.00;93190.81;5085671;28;20211;-74
2023/07/14 07:05:41;;;;;;;15.45;11.70;;;;;;;30.31;49.36;93203.19;5068916;28;20225;-74
2023/07/14 07:08:12;;;;;;;15.48;12.77;;;;;;;29.39;51.02;93168.09;5069644;28;20245;-74
2023/07/14 07:10:40;;;;;;;17.98;13.00;;;;;;;29.47;52.54;93185.81;5068279;28;20221;-75
2023/07/14 07:13:05;;;;;;;15.80;11.95;;;;;;;29.50;52.59;93203.88;5069933;28;20228;-74
2023/07/14 07:15:31;;;;;;;14.15;12.52;;;;;;;29.20;53.02;93200.72;5068702;28;20228;-74
2023/07/14 07:17:56;;;;;;;21.60;13.10;;;;;;;29.59;51.03;93201.59;5069921;28;20184;-75
2023/07/14 07:20:22;;;;;;;14.93;12.30;;;;;;;29.36;50.95;93198.47;5084629;28;20223;-74
2023/07/14 07:22:47;;;;;;;16.08;12.50;;;;;;;29.22;50.96;93203.81;5069160;28;20203;-75
2023/07/14 07:25:13;;;;;;;14.60;12.40;;;;;;;28.92;52.95;93195.22;5068582;28;20239;-75
2023/07/14 07:27:38;;;;;;;15.82;12.63;;;;;;;28.74;54.02;93199.75;5084410;28;20192;-74
2023/07/14 07:30:05;;;;;;;15.02;13.45;;;;;;;28.83;53.34;93191.31;5067437;28;20225;-74
2023/07/14 07:32:31;;;;;;;14.13;12.63;;;;;;;27.93;56.28;93176.94;5069362;28;20207;-75
2023/07/14 07:34:59;;;;;;;14.95;13.32;;;;;;;27.38;57.89;93194.06;5068389;28;20229;-75
2023/07/14 07:37:28;;;;;;;16.27;14.13;;;;;;;27.10;58.93;93183.78;5068447;28;20192;-74
2023/07/14 07:39:55;;;;;;;17.33;14.18;;;;;;;28.01;56.95;93183.91;5056477;28;20233;-75
2023/07/14 07:42:22;;;;;;;16.92;14.20;;;;;;;28.47;56.40;93182.31;5069056;28;20255;-74
2023/07/14 07:44:48;;;;;;;17.77;14.25;;;;;;;28.51;57.81;93180.44;5071943;28;20221;-74
2023/07/14 07:47:14;;;;;;;15.27;13.60;;;;;;;29.01;53.82;93186.81;5069167;28;20205;-74
2023/07/14 07:49:39;;;;;;;14.95;13.50;;;;;;;28.43;56.06;93176.13;5069301;28;20253;-74
2023/07/14 07:52:06;;;;;;;16.60;13.77;;;;;;;28.57;57.92;93173.56;5069320;28;20180;-75
2023/07/14 07:54:31;;;;;;;16.30;13.55;;;;;;;29.13;55.17;93173.81;5068553;28;20237;-74
2023/07/14 07:56:57;;;;;;;16.58;12.68;;;;;;;28.80;54.22;93171.34;5069069;28;20181;-74
2023/07/14 07:59:22;;;;;;;14.00;12.60;;;;;;;28.34;56.22;93162.28;5067932;28;20185;-74
2023/07/14 08:01:48;;;;;;;16.95;13.73;;;;;;;28.04;58.47;93151.72;5067988;28;20245;-74
2023/07/14 08:04:15;;;;;;;17.05;13.02;;;;;;;28.13;58.06;93164.81;5068919;28;20212;-74
2023/07/14 08:06:41;;;;;;;14.95;13.13;;;;;;;28.29;58.68;93159.94;5048443;28;20214;-75
2023/07/14 08:09:06;;;;;;;14.75;13.20;;;;;;;27.60;58.71;93142.91;5049215;28;20494;-75
2023/07/14 08:11:33;;;;;;;15.98;13.88;;;;;;;28.14;57.07;93155.63;5067775;28;20221;-75
2023/07/14 08:13:59;;;;;;;14.25;12.82;;;;;;;28.24;58.32;93166.44;5073237;28;20213;-74
2023/07/14 08:16:25;;;;;;;19.67;13.52;;;;;;;28.89;57.73;93158.31;5049920;28;20214;-75
2023/07/14 08:18:51;;;;;;;22.05;13.02;;;;;;;28.50;56.20;93156.63;5031059;28;20193;-74
2023/07/14 08:21:17;;;;;;;14.93;13.52;;;;;;;28.17;56.62;93141.44;5066891;28;20221;-75
2023/07/14 08:23:43;;;;;;;16.13;13.43;;;;;;;28.62;55.37;93149.00;5072663;28;20209;-75
2023/07/14 08:26:09;;;;;;;15.32;12.68;;;;;;;28.41;56.17;93143.50;5057209;28;20221;-79
2023/07/14 08:28:34;;;;;;;15.13;12.43;;;;;;;28.41;56.29;93150.81;5040299;28;20178;-75
2023/07/14 08:31:02;;;;;;;17.45;13.93;;;;;;;28.38;55.08;93144.25;5052233;28;20249;-74
2023/07/14 08:33:28;;;;;;;26.15;15.30;;;;;;;28.30;54.62;93145.34;5050549;28;20220;-75
2023/07/14 08:35:55;;;;;;;14.50;12.93;;;;;;;28.53;54.94;93145.13;5051263;28;20230;-74
2023/07/14 08:38:22;;;;;;;23.33;16.67;;;;;;;28.99;53.25;93152.22;5052718;28;20186;-74
2023/07/14 08:40:54;;;;;;;15.52;12.30;;;;;;;28.92;51.91;93148.75;5052020;28;20224;-74
2023/07/14 08:43:36;;;;;;;16.02;13.43;;;;;;;29.11;54.46;93143.84;5041459;28;20240;-74
2023/07/14 08:46:07;;;;;;;14.20;12.75;;;;;;;29.05;51.17;93145.31;5051631;28;20311;-73
2023/07/14 08:48:38;;;;;;;14.65;13.27;;;;;;;28.93;50.75;93148.38;5052820;28;20216;-75
2023/07/14 08:51:44;;;;;;;13.95;12.75;;;;;;;28.06;55.30;93143.28;5050750;28;20222;-74
2023/07/14 08:54:20;;;;;;;15.27;13.07;;;;;;;28.22;55.45;93141.06;5011117;28;20218;-74
2023/07/14 08:56:46;;;;;;;14.32;13.05;;;;;;;28.86;53.35;93142.94;5044463;28;20248;-75
2023/07/14 08:59:28;;;;;;;14.23;12.60;;;;;;;29.04;54.49;93143.03;5052240;28;20183;-75
2023/07/14 09:01:56;;;;;;;15.23;13.57;;;;;;;27.97;54.48;93129.44;5051325;28;20225;-75
2023/07/14 09:04:29;;;;;;;14.88;12.45;;;;;;;28.39;55.57;93132.34;5051525;28;20208;-75
2023/07/14 09:06:55;;;;;;;15.52;13.10;;;;;;;28.83;54.67;93138.34;5051673;28;20221;-75
2023/07/14 09:09:29;;;;;;;15.20;12.80;;;;;;;29.30;51.08;93146.19;5051629;28;20185;-75
2023/07/14 09:12:11;;;;;;;14.80;13.13;;;;;;;29.44;51.20;93138.13;5050896;28;20188;-74
2023/07/14 09:14:51;;;;;;;15.00;13.43;;;;;;;28.32;53.45;93124.25;5051561;28;20241;-75
2023/07/14 09:17:38;;;;;;;16.52;14.38;;;;;;;28.53;54.89;93123.63;5051248;28;20208;-77
2023/07/14 09:20:22;;;;;;;19.80;13.25;;;;;;;28.87;55.67;93127.59;5051731;28;20284;-75
2023/07/14 09:22:54;;;;;;;17.88;13.98;;;;;;;28.15;54.34;93117.66;5051965;28;20237;-75
2023/07/14 09:25:38;;;;;;;15.00;13.50;;;;;;;29.27;50.53;93122.75;5038601;28;20248;-75
2023/07/14 09:28:14;;;;;;;14.52;13.20;;;;;;;29.36;49.62;93112.38;5051743;28;20178;-74
2023/07/14 09:30:41;;;;;;;15.00;13.35;;;;;;;29.14;53.30;93116.16;5050637;28;20240;-75
2023/07/14 09:33:13;;;;;;;17.02;13.45;;;;;;;29.55;51.27;93109.31;5066279;28;20253;-74
2023/07/14 09:35:40;;;;;;;14.98;12.65;;;;;;;28.93;52.22;93105.34;5051325;28;20226;-75
2023/07/14 09:38:22;;;;;;;19.83;13.15;;;;;;;28.91;53.61;93098.78;5051407;28;20185;-76
2023/07/14 09:40:53;;;;;;;14.63;13.18;;;;;;;28.73;52.87;93109.50;5050195;28;20312;-76
2023/07/14 09:43:19;;;;;;;21.75;14.45;;;;;;;29.13;50.89;93111.94;5051186;28;20228;-75
2023/07/14 09:45:44;;;;;;;18.13;13.77;;;;;;;29.36;53.43;93104.28;5050526;28;20235;-75
2023/07/14 09:48:20;;;;;;;15.98;13.40;;;;;;;29.56;51.27;93110.06;5051588;28;20193;-75
2023/07/14 09:51:14;;;;;;;16.02;13.38;;;;;;;29.52;50.63;93110.09;5050674;28;20280;-75
2023/07/14 09:53:57;;;;;;;16.35;13.55;;;;;;;29.57;50.08;93106.25;5051370;28;20210;-75
2023/07/14 09:56:28;;;;;;;14.98;13.52;;;;;;;29.58;51.64;93105.84;5050836;28;20229;-75
2023/07/14 09:59:00;;;;;;;15.77;13.45;;;;;;;29.66;50.44;93104.72;5051421;28;20193;-75
2023/07/14 10:01:25;;;;;;;15.63;13.98;;;;;;;29.36;53.60;93098.91;5049951;28;20311;-76
2023/07/14 10:03:54;;;;;;;17.65;13.48;;;;;;;29.29;52.47;93096.19;5050297;28;20961;-74
2023/07/14 10:06:28;;;;;;;21.83;14.20;;;;;;;29.44;52.41;93094.31;5050454;28;20212;-75
2023/07/14 10:09:20;;;;;;;16.75;13.98;;;;;;;29.43;51.82;93084.69;5050569;28;20251;-75
2023/07/14 10:11:48;;;;;;;15.73;13.60;;;;;;;29.46;50.67;93090.09;5071118;28;20238;-75
2023/07/14 10:14:36;;;;;;;15.82;13.48;;;;;;;29.97;49.19;93083.53;5075796;28;20188;-75
2023/07/14 10:17:04;;;;;;;15.48;13.63;;;;;;;30.21;49.67;93083.50;5070534;28;20212;-75
2023/07/14 10:19:40;;;;;;;19.15;13.60;;;;;;;30.27;47.91;93081.19;5052255;28;20203;-74
2023/07/14 10:22:14;;;;;;;15.82;12.77;;;;;;;30.23;49.21;93077.75;5070661;28;20196;-75
2023/07/14 10:24:44;;;;;;;20.00;13.98;;;;;;;30.20;48.15;93060.41;5069837;28;20239;-75
2023/07/14 10:27:55;;;;;;;17.33;13.93;;;;;;;30.31;47.87;93063.06;5070427;28;20212;-75
2023/07/14 10:30:55;;;;;;;27.23;14.40;;;;;;;29.24;50.22;93067.00;5012500;28;20218;-76
2023/07/14 10:33:26;;;;;;;18.52;13.63;;;;;;;29.45;50.23;93068.91;5070289;28;20195;-76
2023/07/14 10:36:26;;;;;;;17.00;14.43;;;;;;;29.68;51.55;93059.34;5069645;28;20215;-75
2023/07/14 10:39:02;;;;;;;20.20;13.63;;;;;;;29.82;50.57;93061.25;5061123;28;20189;-75
2023/07/14 10:41:29;;;;;;;20.52;14.70;;;;;;;29.74;49.72;93063.16;5069834;28;20214;-75
2023/07/14 10:44:02;;;;;;;18.83;14.02;;;;;;;29.63;49.13;93051.66;5078259;28;20256;-75
2023/07/14 10:46:34;;;;;;;19.20;14.55;;;;;;;29.89;49.84;93050.47;5056825;28;20204;-75
2023/07/14 10:49:15;;;;;;;17.00;13.52;;;;;;;30.00;49.21;93053.91;5071016;28;20181;-75
2023/07/14 10:51:51;;;;;;;17.40;15.50;;;;;;;29.72;48.34;93053.94;5048050;28;20241;-75
2023/07/14 10:54:23;;;;;;;20.08;15.07;;;;;;;29.45;49.94;93048.16;5049335;28;20208;-75
2023/07/14 10:57:11;;;;;;;16.05;13.98;;;;;;;29.90;48.09;93054.69;5050262;28;20196;-76
2023/07/14 10:59:45;;;;;;;15.90;14.20;;;;;;;30.38;46.70;93055.75;5038136;28;20252;-75
2023/07/14 11:02:11;;;;;;;18.08;13.65;;;;;;;30.37;46.81;93051.50;5068446;28;20895;-76
2023/07/14 11:04:51;;;;;;;15.30;13.73;;;;;;;30.42;49.30;93047.63;5069446;28;20229;-77
2023/07/14 11:07:25;;;;;;;20.90;14.48;;;;;;;30.38;47.94;93046.91;5068912;28;20215;-76
2023/07/14 11:09:50;;;;;;;18.48;14.05;;;;;;;30.14;46.34;93039.63;5069561;28;20225;-77
2023/07/14 11:12:22;;;;;;;16.48;14.77;;;;;;;30.15;45.09;93047.31;5069571;28;20196;-78
2023/07/14 11:14:54;;;;;;;18.92;13.73;;;;;;;30.71;46.12;93055.22;5067880;28;20330;-78
2023/07/14 11:17:39;;;;;;;17.42;14.05;;;;;;;30.98;44.64;93048.16;5069840;28;20215;-75
2023/07/14 11:20:24;;;;;;;18.05;14.80;;;;;;;30.86;44.00;93047.84;5067440;28;20225;-74
2023/07/14 11:22:55;;;;;;;18.92;14.40;;;;;;;30.84;44.55;93042.06;5062607;28;20170;-75
2023/07/14 11:25:31;;;;;;;22.05;14.82;;;;;;;31.04;44.51;93051.97;5068194;28;20214;-74
2023/07/14 11:28:21;;;;;;;18.17;15.05;;;;;;;30.80;45.69;93035.94;5069473;28;20189;-76